Terminal Aerodrome Forecast
Issued by NWS

Home | Current Version | Previous Version | Text Only | Print | Product List | Glossary On
Versions: 1 2 3 4 5 6 7 8 9 10 11 12 13 14 15 16 17 18 19
000
FTUS44 KMAF 201700 RRA
TAFCNM
TAF
KCNM 201744Z 2018/2118 VRB04KT P6SM -SHRA OVC013
     FM202200 13006KT P6SM -SHRA SCT025 BKN120
      TEMPO 2022/2102 3SM -TSRA BR OVC015CB
     FM210200 14006KT 5SM -SHRA BR OVC015
      TEMPO 2102/2106 4SM -TSRA BR OVC015CB
     FM210600 15006KT 5SM BR OVC015
      TEMPO 2112/2116 2SM -SHRA BR OVC010=

USA.gov is the U.S. government's official web portal to all federal, state and local government web resources and services.